createdAt,value
2022-10-26T00:01:12.513Z,9.70
2022-10-26T00:03:41.664Z,9.69
2022-10-26T00:06:18.505Z,9.66
2022-10-26T00:08:46.310Z,9.64
2022-10-26T00:11:14.442Z,9.63
2022-10-26T00:13:42.346Z,9.63
2022-10-26T00:16:16.084Z,9.55
2022-10-26T00:18:43.827Z,9.60
2022-10-26T00:21:11.703Z,9.60
2022-10-26T00:23:39.032Z,9.61
2022-10-26T00:26:06.965Z,9.63
2022-10-26T00:28:34.225Z,9.64
2022-10-26T00:31:06.776Z,9.60
2022-10-26T00:33:34.412Z,9.59
2022-10-26T00:36:01.669Z,9.62
2022-10-26T00:38:29.230Z,9.63
2022-10-26T00:43:24.897Z,9.64
2022-10-26T00:45:55.429Z,9.59
2022-10-26T00:48:26.424Z,9.62
2022-10-26T00:50:55.111Z,9.63
2022-10-26T00:53:22.444Z,9.62
2022-10-26T00:55:52.467Z,9.60
2022-10-26T00:58:21.769Z,9.60
2022-10-26T01:00:49.716Z,9.61
2022-10-26T01:03:17.588Z,9.59
2022-10-26T01:05:47.712Z,9.65
2022-10-26T01:08:16.914Z,9.68
2022-10-26T01:10:44.304Z,9.69
2022-10-26T01:13:13.076Z,9.71
2022-10-26T01:15:53.418Z,9.72
2022-10-26T01:18:45.968Z,9.73
2022-10-26T01:21:33.846Z,9.71
2022-10-26T01:24:26.291Z,9.71
2022-10-26T01:27:23.555Z,9.71
2022-10-26T01:30:19.536Z,9.72
2022-10-26T01:33:15.194Z,9.73
2022-10-26T01:35:55.275Z,9.74
2022-10-26T01:38:36.627Z,9.75
2022-10-26T01:41:13.765Z,9.77
2022-10-26T01:43:48.633Z,9.76
2022-10-26T01:48:54.199Z,9.78
2022-10-26T01:51:21.731Z,9.78
2022-10-26T01:53:49.021Z,9.77
2022-10-26T01:56:38.931Z,9.79
2022-10-26T01:59:29.604Z,9.79
2022-10-26T02:02:23.180Z,9.82
2022-10-26T02:05:02.003Z,9.84
2022-10-26T02:07:41.777Z,9.84
2022-10-26T02:10:27.329Z,9.85
2022-10-26T02:12:54.273Z,9.86
2022-10-26T02:15:29.281Z,9.88
2022-10-26T02:18:03.590Z,9.90
2022-10-26T02:20:36.115Z,9.91
2022-10-26T02:23:07.192Z,9.92
2022-10-26T02:25:40.935Z,9.97
2022-10-26T02:28:13.006Z,10.00
2022-10-26T02:30:41.924Z,10.01
2022-10-26T02:33:12.166Z,10.04
2022-10-26T02:35:43.312Z,10.05
2022-10-26T02:38:13.196Z,10.09
2022-10-26T02:40:41.260Z,10.11
2022-10-26T02:43:21.958Z,10.10
2022-10-26T02:45:57.256Z,10.17
2022-10-26T02:48:24.465Z,10.20
2022-10-26T02:51:00.113Z,10.20
2022-10-26T02:53:35.495Z,10.21
2022-10-26T02:56:26.157Z,10.25
2022-10-26T02:58:57.545Z,10.25
2022-10-26T03:01:25.340Z,10.27
2022-10-26T03:03:57.814Z,10.28
2022-10-26T03:06:25.408Z,10.29
2022-10-26T03:08:52.759Z,10.31
2022-10-26T03:11:19.743Z,10.31
2022-10-26T03:13:46.790Z,10.28
2022-10-26T03:16:13.784Z,10.35
2022-10-26T03:18:40.803Z,10.36
2022-10-26T03:21:07.862Z,10.38
2022-10-26T03:23:34.844Z,10.38
2022-10-26T03:26:01.857Z,10.39
2022-10-26T03:28:29.043Z,10.38
2022-10-26T03:30:56.280Z,10.38
2022-10-26T03:33:25.709Z,10.38
2022-10-26T03:35:59.475Z,10.39
2022-10-26T03:38:26.509Z,10.38
2022-10-26T03:40:53.602Z,10.40
2022-10-26T03:43:20.635Z,10.36
2022-10-26T03:45:47.793Z,10.47
2022-10-26T03:48:14.853Z,10.48
2022-10-26T03:50:41.879Z,10.50
2022-10-26T03:53:09.101Z,10.51
2022-10-26T03:55:36.162Z,10.51
2022-10-26T03:58:04.559Z,10.50
2022-10-26T04:00:31.657Z,10.50
2022-10-26T04:03:00.034Z,10.44
2022-10-26T04:05:28.982Z,10.43
2022-10-26T04:07:58.022Z,10.45
2022-10-26T04:10:26.566Z,10.43
2022-10-26T04:12:54.696Z,10.39
2022-10-26T04:15:22.429Z,10.38
2022-10-26T04:17:56.241Z,10.34
2022-10-26T04:20:23.728Z,10.34
2022-10-26T04:22:58.141Z,10.29
2022-10-26T04:25:27.547Z,10.26
2022-10-26T04:27:57.776Z,10.26
2022-10-26T04:30:25.155Z,10.21
2022-10-26T04:32:52.262Z,10.24
2022-10-26T04:35:19.315Z,10.22
2022-10-26T04:37:46.300Z,10.22
2022-10-26T04:40:13.438Z,10.20
2022-10-26T04:42:41.730Z,10.20
2022-10-26T04:45:09.628Z,10.22
2022-10-26T04:47:37.220Z,10.23
2022-10-26T04:50:05.187Z,10.23
2022-10-26T04:52:32.187Z,10.25
2022-10-26T04:54:59.561Z,10.27
2022-10-26T04:57:26.613Z,10.29
2022-10-26T04:59:53.616Z,10.30
2022-10-26T05:02:21.222Z,10.32
2022-10-26T05:04:48.506Z,10.34
2022-10-26T05:07:15.555Z,10.30
2022-10-26T05:09:43.015Z,10.35
2022-10-26T05:12:10.012Z,10.33
2022-10-26T05:14:37.084Z,10.47
2022-10-26T05:17:04.173Z,10.49
2022-10-26T05:19:31.161Z,10.48
2022-10-26T05:22:01.093Z,10.47
2022-10-26T05:24:28.116Z,10.36
2022-10-26T05:26:55.211Z,10.39
2022-10-26T05:29:37.832Z,10.38
2022-10-26T05:32:05.142Z,10.38
2022-10-26T05:34:32.209Z,10.36
2022-10-26T05:36:59.687Z,10.36
2022-10-26T05:39:26.729Z,10.29
2022-10-26T05:41:53.720Z,10.32
2022-10-26T05:44:20.783Z,10.27
2022-10-26T05:49:19.691Z,10.32
2022-10-26T05:51:46.687Z,10.30
2022-10-26T05:54:14.115Z,10.33
2022-10-26T05:56:42.281Z,10.39
2022-10-26T05:59:17.046Z,10.45
2022-10-26T06:02:04.990Z,10.47
2022-10-26T06:04:48.705Z,10.50
2022-10-26T06:07:19.991Z,10.56
2022-10-26T06:09:47.792Z,10.54
2022-10-26T06:12:18.525Z,10.55
2022-10-26T06:14:47.356Z,10.54
2022-10-26T06:17:37.092Z,10.61
2022-10-26T06:20:22.137Z,10.63
2022-10-26T06:22:49.496Z,10.54
2022-10-26T06:25:24.003Z,10.51
2022-10-26T06:28:18.618Z,10.55
2022-10-26T06:30:45.756Z,10.51
2022-10-26T06:33:28.539Z,10.45
2022-10-26T06:36:08.221Z,10.43
2022-10-26T06:38:38.021Z,10.40
2022-10-26T06:41:05.892Z,10.44
2022-10-26T06:43:35.485Z,10.38
2022-10-26T06:46:06.312Z,10.39
2022-10-26T06:48:46.816Z,10.42
2022-10-26T06:51:16.257Z,10.48
2022-10-26T06:53:53.043Z,10.40
2022-10-26T06:56:20.653Z,10.47
2022-10-26T06:58:49.306Z,10.47
2022-10-26T07:01:17.602Z,10.53
2022-10-26T07:03:44.803Z,10.58
2022-10-26T07:06:11.865Z,10.69
2022-10-26T07:08:39.017Z,10.66
2022-10-26T07:11:06.124Z,10.69
2022-10-26T07:13:33.170Z,10.75
2022-10-26T07:16:00.207Z,10.85
2022-10-26T07:18:27.267Z,10.91
2022-10-26T07:20:54.260Z,10.96
2022-10-26T07:23:23.182Z,11.06
2022-10-26T07:25:50.254Z,11.12
2022-10-26T07:28:17.288Z,11.18
2022-10-26T07:30:44.394Z,11.18
2022-10-26T07:33:14.005Z,11.20
2022-10-26T07:35:42.164Z,11.18
2022-10-26T07:38:09.568Z,11.24
2022-10-26T07:40:38.020Z,11.27
2022-10-26T07:43:05.092Z,11.27
2022-10-26T07:45:32.338Z,11.28
2022-10-26T07:47:59.503Z,11.35
2022-10-26T07:50:27.866Z,11.37
2022-10-26T07:52:54.980Z,11.40
2022-10-26T07:55:22.080Z,11.49
2022-10-26T07:57:52.603Z,11.56
2022-10-26T08:00:22.175Z,11.68
2022-10-26T08:02:49.338Z,11.77
2022-10-26T08:05:16.679Z,11.88
2022-10-26T08:07:44.781Z,11.99
2022-10-26T08:10:12.824Z,12.08
2022-10-26T08:12:40.400Z,12.23
2022-10-26T08:15:08.210Z,12.24
2022-10-26T08:17:35.410Z,12.31
2022-10-26T08:20:02.890Z,12.38
2022-10-26T08:22:30.901Z,12.44
2022-10-26T08:24:58.249Z,12.45
2022-10-26T08:27:25.518Z,12.51
2022-10-26T08:29:52.569Z,12.65
2022-10-26T08:32:19.661Z,12.73
2022-10-26T08:34:46.712Z,12.84
2022-10-26T08:37:13.807Z,12.89
2022-10-26T08:39:40.811Z,12.96
2022-10-26T08:42:31.192Z,13.06
2022-10-26T08:45:03.716Z,13.08
2022-10-26T08:47:35.879Z,13.14
2022-10-26T08:50:10.323Z,13.23
2022-10-26T08:53:17.730Z,13.29
2022-10-26T08:55:49.159Z,13.44
2022-10-26T08:58:20.421Z,13.53
2022-10-26T09:00:49.893Z,13.74
2022-10-26T09:03:18.689Z,13.89
2022-10-26T09:06:04.912Z,14.07
2022-10-26T09:08:46.184Z,14.20
2022-10-26T09:11:58.149Z,14.33
2022-10-26T09:14:39.310Z,14.39
2022-10-26T09:17:37.937Z,14.46
2022-10-26T09:20:41.398Z,14.44
2022-10-26T09:23:08.364Z,14.53
2022-10-26T09:25:39.751Z,14.64
2022-10-26T09:28:15.178Z,14.72
2022-10-26T09:30:44.622Z,14.67
2022-10-26T09:33:17.752Z,14.84
2022-10-26T09:35:56.819Z,14.84
2022-10-26T09:38:33.085Z,14.94
2022-10-26T09:41:06.524Z,15.02
2022-10-26T09:43:38.020Z,15.05
2022-10-26T09:46:05.101Z,15.08
2022-10-26T09:48:57.985Z,14.99
2022-10-26T09:51:27.142Z,14.93
2022-10-26T09:53:56.966Z,14.93
2022-10-26T09:56:28.330Z,14.95
2022-10-26T09:59:05.581Z,14.96
2022-10-26T10:01:39.909Z,14.98
2022-10-26T10:04:13.985Z,14.99
2022-10-26T10:06:41.718Z,15.02
2022-10-26T10:09:22.761Z,15.06
2022-10-26T10:11:59.565Z,15.17
2022-10-26T10:14:48.219Z,15.24
2022-10-26T10:17:22.413Z,15.37
2022-10-26T10:19:50.232Z,15.45
2022-10-26T10:22:19.932Z,15.49
2022-10-26T10:24:55.646Z,15.57
2022-10-26T10:27:23.573Z,15.64
2022-10-26T10:29:59.722Z,15.74
2022-10-26T10:32:35.408Z,15.78
2022-10-26T10:35:24.270Z,15.85
2022-10-26T10:37:52.205Z,15.91
2022-10-26T10:40:26.058Z,15.99
2022-10-26T10:43:03.561Z,16.06
2022-10-26T10:45:31.430Z,16.11
2022-10-26T10:48:23.365Z,16.16
2022-10-26T10:50:59.887Z,16.22
2022-10-26T10:53:41.832Z,16.27
2022-10-26T10:56:11.524Z,16.31
2022-10-26T10:58:47.957Z,16.39
2022-10-26T11:01:21.097Z,16.37
2022-10-26T11:03:59.512Z,16.48
2022-10-26T11:06:29.972Z,16.49
2022-10-26T11:08:59.994Z,16.49
2022-10-26T11:11:45.585Z,16.50
2022-10-26T11:14:23.729Z,16.58
2022-10-26T11:17:04.323Z,16.60
2022-10-26T11:19:42.474Z,16.57
2022-10-26T11:22:20.618Z,16.56
2022-10-26T11:24:54.412Z,16.46
2022-10-26T11:27:44.108Z,16.51
2022-10-26T11:30:18.564Z,16.47
2022-10-26T11:32:56.837Z,16.45
2022-10-26T11:35:44.092Z,16.44
2022-10-26T11:38:45.295Z,16.40
2022-10-26T11:41:21.359Z,16.37
2022-10-26T11:43:53.292Z,16.30
2022-10-26T11:46:48.460Z,16.24
2022-10-26T11:49:34.928Z,16.16
2022-10-26T11:52:17.890Z,16.19
2022-10-26T11:54:52.123Z,16.17
2022-10-26T11:57:21.982Z,16.25
2022-10-26T11:59:53.770Z,16.39
2022-10-26T12:02:25.713Z,16.42
2022-10-26T12:05:30.804Z,16.57
2022-10-26T12:08:08.221Z,16.60
2022-10-26T12:10:39.595Z,16.72
2022-10-26T12:13:31.509Z,16.82
2022-10-26T12:16:13.573Z,16.87
2022-10-26T12:18:56.380Z,16.80
2022-10-26T12:21:30.320Z,16.80
2022-10-26T12:24:21.715Z,16.78
2022-10-26T12:27:02.583Z,16.86
2022-10-26T12:29:44.984Z,16.74
2022-10-26T12:32:31.104Z,16.74
2022-10-26T12:35:01.079Z,16.77
2022-10-26T12:37:37.541Z,16.75
2022-10-26T12:40:32.548Z,16.77
2022-10-26T12:43:14.932Z,16.90
2022-10-26T12:45:43.688Z,16.93
2022-10-26T12:48:43.754Z,16.99
2022-10-26T12:51:20.822Z,17.05
2022-10-26T12:54:09.076Z,17.07
2022-10-26T12:57:08.724Z,17.03
2022-10-26T12:59:41.648Z,17.07
2022-10-26T13:02:36.426Z,17.08
2022-10-26T13:05:41.807Z,17.05
2022-10-26T13:08:11.630Z,17.07
2022-10-26T13:10:55.235Z,17.06
2022-10-26T13:13:24.047Z,17.11
2022-10-26T13:16:00.163Z,17.19
2022-10-26T13:18:28.356Z,17.25
2022-10-26T13:21:11.571Z,17.27
2022-10-26T13:23:42.309Z,17.27
2022-10-26T13:26:12.769Z,17.27
2022-10-26T13:28:39.940Z,17.27
2022-10-26T13:31:31.470Z,17.28
2022-10-26T13:34:10.686Z,17.30
2022-10-26T13:36:56.610Z,17.33
2022-10-26T13:39:29.105Z,17.36
2022-10-26T13:41:58.947Z,17.33
2022-10-26T13:44:31.298Z,17.42
2022-10-26T13:47:03.226Z,17.49
2022-10-26T13:49:36.525Z,17.50
2022-10-26T13:52:05.622Z,17.53
2022-10-26T13:54:49.935Z,17.52
2022-10-26T13:57:43.702Z,17.63
2022-10-26T14:00:19.273Z,17.70
2022-10-26T14:02:47.003Z,17.68
2022-10-26T14:05:17.208Z,17.66
2022-10-26T14:07:54.067Z,17.61
2022-10-26T14:10:41.639Z,17.65
2022-10-26T14:13:14.361Z,17.64
2022-10-26T14:15:48.424Z,17.57
2022-10-26T14:18:21.311Z,17.60
2022-10-26T14:20:59.982Z,17.62
2022-10-26T14:23:45.721Z,17.55
2022-10-26T14:26:26.103Z,17.69
2022-10-26T14:28:59.546Z,17.67
2022-10-26T14:31:32.000Z,17.69
2022-10-26T14:34:04.098Z,17.71
2022-10-26T14:36:37.449Z,17.74
2022-10-26T14:39:16.182Z,17.82
2022-10-26T14:41:43.556Z,17.94
2022-10-26T14:44:19.287Z,17.95
2022-10-26T14:46:46.535Z,18.07
2022-10-26T14:49:22.657Z,18.17
2022-10-26T14:51:56.042Z,18.29
2022-10-26T14:54:25.988Z,18.41
2022-10-26T14:56:53.146Z,18.44
2022-10-26T14:59:24.925Z,18.38
2022-10-26T15:01:56.492Z,18.24
2022-10-26T15:04:37.515Z,18.07
2022-10-26T15:07:07.214Z,17.94
2022-10-26T15:09:43.124Z,17.85
2022-10-26T15:12:38.456Z,17.79
2022-10-26T15:15:08.517Z,17.64
2022-10-26T15:17:42.277Z,17.59
2022-10-26T15:20:15.963Z,17.55
2022-10-26T15:22:49.034Z,17.51
2022-10-26T15:25:23.053Z,17.44
2022-10-26T15:27:51.333Z,17.39
2022-10-26T15:30:23.159Z,17.34
2022-10-26T15:32:51.824Z,17.33
2022-10-26T15:35:18.928Z,17.31
2022-10-26T15:37:47.456Z,17.24
2022-10-26T15:40:15.073Z,17.23
2022-10-26T15:42:45.196Z,17.21
2022-10-26T15:45:24.403Z,17.19
2022-10-26T15:47:53.229Z,17.12
2022-10-26T15:50:22.863Z,17.08
2022-10-26T15:52:50.983Z,17.03
2022-10-26T15:55:18.207Z,16.96
2022-10-26T15:57:46.037Z,16.89
2022-10-26T16:00:18.486Z,16.86
2022-10-26T16:02:48.961Z,16.78
2022-10-26T16:05:16.922Z,16.72
2022-10-26T16:07:46.695Z,16.66
2022-10-26T16:10:25.058Z,16.55
2022-10-26T16:12:52.851Z,16.46
2022-10-26T16:15:24.711Z,16.38
2022-10-26T16:17:52.141Z,16.26
2022-10-26T16:20:23.430Z,16.23
2022-10-26T16:22:52.561Z,16.17
2022-10-26T16:25:23.827Z,16.13
2022-10-26T16:27:51.638Z,16.13
2022-10-26T16:30:20.235Z,16.04
2022-10-26T16:32:47.479Z,16.06
2022-10-26T16:35:15.086Z,16.09
2022-10-26T16:37:42.384Z,16.04
2022-10-26T16:40:10.033Z,15.99
2022-10-26T16:42:37.098Z,15.93
2022-10-26T16:45:04.573Z,15.87
2022-10-26T16:47:39.699Z,15.83
2022-10-26T16:50:11.601Z,15.78
2022-10-26T16:52:39.334Z,15.74
2022-10-26T16:55:08.983Z,15.66
2022-10-26T16:57:37.009Z,15.67
2022-10-26T17:00:06.424Z,15.64
2022-10-26T17:02:33.737Z,15.62
2022-10-26T17:05:07.188Z,15.49
2022-10-26T17:07:35.580Z,15.48
2022-10-26T17:10:02.719Z,15.49
2022-10-26T17:12:29.960Z,15.43
2022-10-26T17:14:58.804Z,15.44
2022-10-26T17:17:25.945Z,15.33
2022-10-26T17:19:53.188Z,15.35
2022-10-26T17:22:20.209Z,15.29
2022-10-26T17:24:47.299Z,15.29
2022-10-26T17:27:16.495Z,15.26
2022-10-26T17:29:43.481Z,15.23
2022-10-26T17:32:10.504Z,15.27
2022-10-26T17:34:37.532Z,15.26
2022-10-26T17:37:04.627Z,15.23
2022-10-26T17:39:31.609Z,15.21
2022-10-26T17:41:59.245Z,15.17
2022-10-26T17:44:26.478Z,15.18
2022-10-26T17:46:53.486Z,15.15
2022-10-26T17:49:24.848Z,15.12
2022-10-26T17:51:53.891Z,15.03
2022-10-26T17:54:21.050Z,15.06
2022-10-26T17:56:48.101Z,14.99
2022-10-26T17:59:15.160Z,15.04
2022-10-26T18:01:43.386Z,15.05
2022-10-26T18:04:10.647Z,15.06
2022-10-26T18:06:37.681Z,15.05
2022-10-26T18:09:04.745Z,15.02
2022-10-26T18:14:03.952Z,14.94
2022-10-26T18:16:31.399Z,14.87
2022-10-26T18:19:01.651Z,14.83
2022-10-26T18:21:31.148Z,14.82
2022-10-26T18:23:58.498Z,14.79
2022-10-26T18:26:29.367Z,14.80
2022-10-26T18:28:58.364Z,14.82
2022-10-26T18:31:27.018Z,14.80
2022-10-26T18:33:56.215Z,14.81
2022-10-26T18:36:24.105Z,14.85
2022-10-26T18:38:51.663Z,14.76
2022-10-26T18:41:20.716Z,14.84
2022-10-26T18:43:50.280Z,14.81
2022-10-26T18:46:23.991Z,14.79
2022-10-26T18:48:51.545Z,14.69
2022-10-26T18:51:22.342Z,14.76
2022-10-26T18:53:49.536Z,14.76
2022-10-26T18:56:19.293Z,14.79
2022-10-26T18:58:49.340Z,14.82
2022-10-26T19:01:19.924Z,14.84
2022-10-26T19:03:48.040Z,14.91
2022-10-26T19:06:20.934Z,14.93
2022-10-26T19:08:48.073Z,14.90
2022-10-26T19:11:17.449Z,14.93
2022-10-26T19:13:46.053Z,14.94
2022-10-26T19:16:33.509Z,14.92
2022-10-26T19:19:05.924Z,14.85
2022-10-26T19:21:32.989Z,14.87
2022-10-26T19:24:01.343Z,14.82
2022-10-26T19:26:37.789Z,14.82
2022-10-26T19:29:07.982Z,14.78
2022-10-26T19:31:38.271Z,14.80
2022-10-26T19:34:06.042Z,14.85
2022-10-26T19:36:33.814Z,14.86
2022-10-26T19:39:03.693Z,14.83
2022-10-26T19:41:31.330Z,14.76
2022-10-26T19:46:31.194Z,14.76
2022-10-26T19:49:01.005Z,14.78
2022-10-26T19:51:30.082Z,14.78
2022-10-26T19:54:04.222Z,14.76
2022-10-26T19:56:32.602Z,14.82
2022-10-26T19:59:01.060Z,14.82
2022-10-26T20:01:28.281Z,14.80
2022-10-26T20:03:55.373Z,14.76
2022-10-26T20:06:22.425Z,14.74
2022-10-26T20:08:50.131Z,14.72
2022-10-26T20:11:18.445Z,14.66
2022-10-26T20:13:47.231Z,14.65
2022-10-26T20:16:16.666Z,14.61
2022-10-26T20:18:47.671Z,14.49
2022-10-26T20:21:17.273Z,14.51
2022-10-26T20:23:45.047Z,14.46
2022-10-26T20:26:18.734Z,14.43
2022-10-26T20:28:49.100Z,14.40
2022-10-26T20:31:16.302Z,14.36
2022-10-26T20:33:43.368Z,14.35
2022-10-26T20:36:10.622Z,14.33
2022-10-26T20:38:38.927Z,14.32
2022-10-26T20:41:09.316Z,14.30
2022-10-26T20:43:39.431Z,14.20
2022-10-26T20:46:10.488Z,14.22
2022-10-26T20:48:38.672Z,14.17
2022-10-26T20:51:26.328Z,14.12
2022-10-26T20:54:15.047Z,14.01
2022-10-26T20:56:42.336Z,14.02
2022-10-26T21:02:01.233Z,13.94
2022-10-26T21:04:28.373Z,13.90
2022-10-26T21:06:55.418Z,13.88
2022-10-26T21:09:23.582Z,13.85
2022-10-26T21:11:50.798Z,13.82
2022-10-26T21:14:17.804Z,13.82
2022-10-26T21:16:44.925Z,13.79
2022-10-26T21:19:12.028Z,13.79
2022-10-26T21:21:39.057Z,13.79
2022-10-26T21:24:06.450Z,13.80
2022-10-26T21:26:33.485Z,13.79
2022-10-26T21:29:03.533Z,13.79
2022-10-26T21:31:31.093Z,13.80
2022-10-26T21:33:58.496Z,13.83
2022-10-26T21:36:25.582Z,13.82
2022-10-26T21:38:52.637Z,13.79
2022-10-26T21:41:21.001Z,13.79
2022-10-26T21:43:59.076Z,13.73
2022-10-26T21:46:37.900Z,13.69
2022-10-26T21:49:05.692Z,13.67
2022-10-26T21:51:32.750Z,13.61
2022-10-26T21:54:00.094Z,13.61
2022-10-26T21:56:27.214Z,13.59
2022-10-26T21:58:54.194Z,13.57
2022-10-26T22:01:22.717Z,13.56
2022-10-26T22:03:50.084Z,13.53
2022-10-26T22:08:47.298Z,13.52
2022-10-26T22:11:19.875Z,13.46
2022-10-26T22:13:47.917Z,13.46
2022-10-26T22:16:23.183Z,13.38
2022-10-26T22:18:51.969Z,13.42
2022-10-26T22:21:20.152Z,13.39
2022-10-26T22:23:47.509Z,13.38
2022-10-26T22:26:25.057Z,13.36
2022-10-26T22:28:55.069Z,13.33
2022-10-26T22:34:06.489Z,13.31
2022-10-26T22:36:35.373Z,13.31
2022-10-26T22:39:03.221Z,13.34
2022-10-26T22:41:31.275Z,13.35
2022-10-26T22:43:58.557Z,13.40
2022-10-26T22:46:28.204Z,13.43
2022-10-26T22:49:02.684Z,13.44
2022-10-26T22:51:32.223Z,13.46
2022-10-26T22:54:01.651Z,13.52
2022-10-26T22:56:30.973Z,13.54
2022-10-26T22:58:58.571Z,13.56
2022-10-26T23:01:31.386Z,13.52
2022-10-26T23:03:59.887Z,13.59
2022-10-26T23:06:29.976Z,13.63
2022-10-26T23:08:57.658Z,13.65
2022-10-26T23:11:26.934Z,13.68
2022-10-26T23:14:00.006Z,13.70
2022-10-26T23:16:27.984Z,13.74
2022-10-26T23:18:55.220Z,13.75
2022-10-26T23:21:24.263Z,13.76
2022-10-26T23:23:51.371Z,13.77
2022-10-26T23:26:21.035Z,13.75
2022-10-26T23:28:48.488Z,13.75
2022-10-26T23:31:21.097Z,13.73
2022-10-26T23:33:51.617Z,13.73
2022-10-26T23:36:19.161Z,13.71
2022-10-26T23:38:46.593Z,13.61
2022-10-26T23:41:13.913Z,13.61
2022-10-26T23:43:44.003Z,13.57
2022-10-26T23:46:11.088Z,13.51
2022-10-26T23:48:38.166Z,13.48
2022-10-26T23:51:05.262Z,13.37
2022-10-26T23:53:32.563Z,13.38
2022-10-26T23:56:00.132Z,13.40
2022-10-26T23:58:27.166Z,13.36
